Time;durP1;ratioP1;P1;durP2;ratioP2;P2;SDS_P1;SDS_P2;PMS_P1;PMS_P2;Temp;Humidity;BMP_temperature;BMP_pressure;BME280_temperature;BME280_humidity;BME280_pressure;Samples;Min_cycle;Max_cycle;Signal;HPM_P1;HPM_P2
2022/03/16 05:01:14;;;;;;;50.60;27.97;;;8.30;99.90;;;;;;5603468;23;20547;-76
2022/03/16 05:03:41;;;;;;;52.23;31.03;;;8.30;99.90;;;;;;4972274;28;20901;-76
2022/03/16 05:06:08;;;;;;;52.77;30.97;;;8.20;99.90;;;;;;4972270;28;20465;-76
2022/03/16 05:08:36;;;;;;;48.67;28.30;;;8.20;99.90;;;;;;4972306;28;20456;-76
2022/03/16 05:11:03;;;;;;;44.60;27.47;;;8.20;99.90;;;;;;4972574;28;20487;-76
2022/03/16 05:13:30;;;;;;;52.97;29.80;;;8.20;99.90;;;;;;4972312;28;20575;-77
2022/03/16 05:15:57;;;;;;;50.70;29.50;;;8.20;99.90;;;;;;4972964;28;20447;-76
2022/03/16 05:18:26;;;;;;;52.20;31.57;;;8.20;99.90;;;;;;4971873;28;20464;-76
2022/03/16 05:20:53;;;;;;;52.30;31.07;;;8.10;99.90;;;;;;4971905;28;20567;-76
2022/03/16 05:23:19;;;;;;;55.83;30.70;;;8.10;99.90;;;;;;4972199;28;20503;-76
2022/03/16 05:25:46;;;;;;;51.13;30.00;;;8.20;99.90;;;;;;4972652;28;20495;-76
2022/03/16 05:28:13;;;;;;;55.13;31.20;;;8.10;99.90;;;;;;4975414;28;20464;-76
2022/03/16 05:30:40;;;;;;;51.63;29.70;;;8.10;99.90;;;;;;4975464;28;20995;-76
2022/03/16 05:33:07;;;;;;;56.47;32.17;;;8.00;99.90;;;;;;4975742;28;20543;-76
2022/03/16 05:35:35;;;;;;;54.53;30.50;;;8.00;99.90;;;;;;4975493;28;20492;-77
2022/03/16 05:38:05;;;;;;;51.93;30.70;;;7.90;99.90;;;;;;4975413;28;20460;-76
2022/03/16 05:40:32;;;;;;;49.43;29.77;;;7.90;99.90;;;;;;4975690;28;20512;-76
2022/03/16 05:42:59;;;;;;;51.90;30.60;;;7.90;99.90;;;;;;4975511;28;20451;-76
2022/03/16 05:45:26;;;;;;;49.03;29.20;;;7.90;99.90;;;;;;4975320;28;20479;-76
2022/03/16 05:47:53;;;;;;;50.60;30.10;;;7.90;99.90;;;;;;4975445;28;20467;-76
2022/03/16 05:50:19;;;;;;;51.47;30.27;;;7.80;99.90;;;;;;4975283;28;20511;-76
2022/03/16 05:52:48;;;;;;;51.13;27.90;;;7.80;99.90;;;;;;4975391;28;20460;-77
2022/03/16 05:55:15;;;;;;;51.77;30.63;;;7.70;99.90;;;;;;4975191;28;21083;-76
2022/03/16 05:57:44;;;;;;;52.93;29.70;;;7.70;99.90;;;;;;4975127;28;20483;-76
2022/03/16 06:00:14;;;;;;;47.20;29.00;;;7.70;99.90;;;;;;4975010;28;20952;-69
2022/03/16 06:02:41;;;;;;;44.17;28.00;;;7.70;99.90;;;;;;4975238;28;20468;-67
2022/03/16 06:05:09;;;;;;;44.03;27.37;;;7.70;99.90;;;;;;4975349;28;20448;-67
2022/03/16 06:07:37;;;;;;;47.17;27.40;;;7.70;99.90;;;;;;4974685;28;20482;-74
2022/03/16 06:10:07;;;;;;;38.20;24.33;;;7.70;99.90;;;;;;4975049;28;20468;-74
2022/03/16 06:12:34;;;;;;;41.77;25.90;;;7.60;99.90;;;;;;4975141;28;20471;-74
2022/03/16 06:15:01;;;;;;;39.80;25.67;;;7.60;99.90;;;;;;4975065;28;20595;-74
2022/03/16 06:17:28;;;;;;;41.90;25.13;;;7.60;99.90;;;;;;4974691;28;20456;-74
2022/03/16 06:19:55;;;;;;;41.50;25.90;;;7.60;99.90;;;;;;4974949;28;20461;-73
2022/03/16 06:22:22;;;;;;;39.83;26.70;;;7.60;99.90;;;;;;4975241;28;20478;-73
2022/03/16 06:24:48;;;;;;;38.10;24.87;;;7.60;99.90;;;;;;4974667;28;20468;-73
2022/03/16 06:27:17;;;;;;;39.53;25.43;;;7.60;99.90;;;;;;4974532;28;20558;-74
2022/03/16 06:29:44;;;;;;;38.53;24.60;;;7.70;99.90;;;;;;4974872;28;20468;-73
2022/03/16 06:32:11;;;;;;;39.40;24.87;;;7.70;99.90;;;;;;4974794;28;20477;-73
2022/03/16 06:34:38;;;;;;;39.30;23.60;;;7.70;99.90;;;;;;4974665;28;20547;-73
2022/03/16 06:37:05;;;;;;;38.27;24.57;;;7.70;99.90;;;;;;4973781;28;20929;-73
2022/03/16 06:39:32;;;;;;;38.47;23.47;;;7.80;99.90;;;;;;4974363;28;20462;-73
2022/03/16 06:41:59;;;;;;;42.77;26.23;;;7.80;99.90;;;;;;4974629;28;20807;-73
2022/03/16 06:44:27;;;;;;;36.53;23.07;;;7.80;99.90;;;;;;4974394;28;20455;-73
2022/03/16 06:46:54;;;;;;;35.67;24.13;;;7.80;99.90;;;;;;4974149;28;20466;-74
2022/03/16 06:49:21;;;;;;;36.73;24.10;;;7.80;99.90;;;;;;4974384;28;20452;-74
2022/03/16 06:51:48;;;;;;;37.80;24.57;;;7.80;99.90;;;;;;4974247;28;20580;-74
2022/03/16 06:54:14;;;;;;;37.43;23.70;;;7.80;99.90;;;;;;4973871;28;20500;-74
2022/03/16 06:56:41;;;;;;;40.37;24.27;;;7.80;99.90;;;;;;4974161;28;20543;-74
2022/03/16 06:59:08;;;;;;;38.57;24.30;;;7.80;99.90;;;;;;4972699;28;20539;-74
2022/03/16 07:01:37;;;;;;;40.00;24.10;;;7.90;99.90;;;;;;4972925;28;20484;-74
2022/03/16 07:04:04;;;;;;;36.80;23.90;;;7.90;99.90;;;;;;4974123;28;20458;-74
2022/03/16 07:06:31;;;;;;;42.33;24.93;;;7.90;99.90;;;;;;4973754;28;20461;-74
2022/03/16 07:08:58;;;;;;;42.47;23.80;;;7.90;99.90;;;;;;4973918;28;20491;-74
2022/03/16 07:11:25;;;;;;;35.63;23.57;;;8.00;99.90;;;;;;4973876;28;20465;-73
2022/03/16 07:16:33;;;;;;;38.30;23.43;;;8.00;99.90;;;;;;4972599;28;20552;-74
2022/03/16 07:19:02;;;;;;;37.73;22.37;;;8.00;99.90;;;;;;4973770;28;20448;-74
2022/03/16 07:21:28;;;;;;;39.17;24.17;;;7.90;99.90;;;;;;4973354;28;20507;-74
2022/03/16 07:23:55;;;;;;;39.20;24.03;;;8.00;99.90;;;;;;4973576;28;20957;-74
2022/03/16 07:26:22;;;;;;;36.33;22.93;;;7.90;99.90;;;;;;4972120;28;20473;-74
2022/03/16 07:28:50;;;;;;;35.90;22.80;;;8.00;99.90;;;;;;4973314;28;20960;-74
2022/03/16 07:31:17;;;;;;;33.10;22.20;;;8.00;99.90;;;;;;4973557;28;20499;-74
2022/03/16 07:33:44;;;;;;;38.93;24.40;;;8.00;99.90;;;;;;4973263;28;20544;-74
2022/03/16 07:36:12;;;;;;;36.93;22.90;;;8.00;99.90;;;;;;4973369;28;20506;-74
2022/03/16 07:38:39;;;;;;;39.30;23.30;;;8.00;99.90;;;;;;4973529;28;20456;-74
2022/03/16 07:41:06;;;;;;;34.90;22.90;;;8.10;99.90;;;;;;4973281;28;21010;-74
2022/03/16 07:43:32;;;;;;;36.07;22.50;;;8.10;99.90;;;;;;4973357;28;20552;-74
2022/03/16 07:45:59;;;;;;;35.13;22.00;;;8.10;99.90;;;;;;4973270;28;21032;-74
2022/03/16 07:48:27;;;;;;;33.23;21.50;;;8.10;99.90;;;;;;4972651;28;20456;-74
2022/03/16 07:50:54;;;;;;;32.77;22.20;;;8.20;99.90;;;;;;4973308;28;20508;-74
2022/03/16 07:53:22;;;;;;;34.17;21.67;;;8.20;99.90;;;;;;4973113;28;20543;-74
2022/03/16 07:55:51;;;;;;;36.60;23.13;;;8.30;99.90;;;;;;4973159;28;20503;-74
2022/03/16 07:58:18;;;;;;;31.27;20.80;;;8.30;99.90;;;;;;4972868;28;20456;-74
2022/03/16 08:00:45;;;;;;;38.07;23.87;;;8.40;99.90;;;;;;4972879;28;20480;-74
2022/03/16 08:03:13;;;;;;;34.50;23.40;;;8.50;99.90;;;;;;4973212;28;20515;-74
2022/03/16 08:05:40;;;;;;;30.77;21.93;;;8.50;99.90;;;;;;4973107;28;20956;-74
2022/03/16 08:08:07;;;;;;;33.67;22.23;;;8.50;99.90;;;;;;4972963;28;20470;-74
2022/03/16 08:10:35;;;;;;;33.83;21.93;;;8.50;99.90;;;;;;4973140;28;20470;-74
2022/03/16 08:13:02;;;;;;;34.67;21.90;;;8.50;99.90;;;;;;4973462;28;20559;-74
2022/03/16 08:15:29;;;;;;;34.43;22.03;;;8.60;99.90;;;;;;4972726;28;21008;-74
2022/03/16 08:17:56;;;;;;;31.97;21.00;;;8.60;99.90;;;;;;4972593;28;20457;-74
2022/03/16 08:20:23;;;;;;;33.57;21.90;;;8.60;99.90;;;;;;4972993;28;20460;-74
2022/03/16 08:22:54;;;;;;;33.13;21.70;;;8.60;99.90;;;;;;4973090;28;20464;-74
2022/03/16 08:25:21;;;;;;;29.77;20.73;;;8.70;99.90;;;;;;4973057;28;20543;-74
2022/03/16 08:27:49;;;;;;;33.73;21.70;;;8.70;99.90;;;;;;4972450;28;20452;-74
2022/03/16 08:30:17;;;;;;;36.87;22.17;;;8.80;99.90;;;;;;4973025;28;20452;-75
2022/03/16 08:32:44;;;;;;;31.20;21.30;;;8.80;99.90;;;;;;4972704;28;20548;-75
2022/03/16 08:35:12;;;;;;;32.83;21.97;;;8.80;99.90;;;;;;4972870;28;20584;-75
2022/03/16 08:37:39;;;;;;;33.23;22.13;;;8.80;99.90;;;;;;4972611;28;20824;-75
2022/03/16 08:40:07;;;;;;;34.90;22.53;;;8.80;99.90;;;;;;4972743;28;20951;-75
2022/03/16 08:42:34;;;;;;;31.27;22.03;;;9.00;99.90;;;;;;4972341;28;20473;-75
2022/03/16 08:45:03;;;;;;;33.33;22.50;;;9.00;99.90;;;;;;4972716;28;20452;-75
2022/03/16 08:47:31;;;;;;;31.13;21.13;;;9.10;99.90;;;;;;4972420;28;20957;-75
2022/03/16 08:49:58;;;;;;;31.70;21.60;;;9.10;99.90;;;;;;4972683;28;20813;-75
2022/03/16 08:52:24;;;;;;;31.90;20.57;;;9.10;99.90;;;;;;4972519;28;20487;-75
2022/03/16 08:54:51;;;;;;;33.63;21.43;;;9.20;99.90;;;;;;4972480;28;20530;-75
2022/03/16 08:57:22;;;;;;;27.77;20.00;;;9.30;99.90;;;;;;4972186;28;20922;-75
2022/03/16 08:59:50;;;;;;;30.07;20.87;;;9.30;99.90;;;;;;4973324;28;20461;-75
2022/03/16 09:02:18;;;;;;;28.07;20.10;;;9.40;99.90;;;;;;4976113;28;21080;-75
2022/03/16 09:04:45;;;;;;;31.70;21.27;;;9.50;99.90;;;;;;4976321;28;20448;-75
2022/03/16 09:07:12;;;;;;;31.17;21.03;;;9.50;99.90;;;;;;4976072;28;20879;-75
2022/03/16 09:09:39;;;;;;;30.10;20.80;;;9.60;99.90;;;;;;4976043;28;20448;-75
2022/03/16 09:12:08;;;;;;;31.63;19.23;;;9.60;99.90;;;;;;4976198;28;20476;-75
2022/03/16 09:14:34;;;;;;;31.00;20.90;;;9.70;99.90;;;;;;4976001;28;20463;-75
2022/03/16 09:17:01;;;;;;;29.10;19.97;;;9.70;99.90;;;;;;4976020;28;20483;-75
2022/03/16 09:19:30;;;;;;;28.03;20.37;;;9.70;99.90;;;;;;4976031;28;20971;-75
2022/03/16 09:22:00;;;;;;;27.53;19.00;;;9.80;99.90;;;;;;4975919;28;20531;-75
2022/03/16 09:24:27;;;;;;;29.10;19.63;;;9.80;99.90;;;;;;4975813;28;20954;-76
2022/03/16 09:26:54;;;;;;;33.37;20.53;;;9.90;99.90;;;;;;4975586;28;20453;-74
2022/03/16 09:29:21;;;;;;;29.43;20.27;;;10.00;99.90;;;;;;4975848;28;20452;-74
2022/03/16 09:31:48;;;;;;;32.37;21.73;;;10.10;99.90;;;;;;4967032;28;20524;-74
2022/03/16 09:34:15;;;;;;;29.97;19.57;;;10.10;99.90;;;;;;4967833;28;21173;-74
2022/03/16 09:36:45;;;;;;;28.97;20.33;;;10.20;99.90;;;;;;4981622;28;20513;-74
2022/03/16 09:39:12;;;;;;;28.50;19.93;;;10.10;99.90;;;;;;4987287;28;20466;-75
2022/03/16 09:41:39;;;;;;;31.03;20.47;;;10.20;99.90;;;;;;4986859;28;20482;-73
2022/03/16 09:44:07;;;;;;;28.13;20.60;;;10.30;99.90;;;;;;4994209;28;20538;-74
2022/03/16 09:46:35;;;;;;;29.30;19.83;;;10.30;99.90;;;;;;4993859;28;20542;-74
2022/03/16 09:49:03;;;;;;;30.80;21.57;;;10.30;99.90;;;;;;4993825;28;21166;-75
2022/03/16 09:51:35;;;;;;;29.33;20.43;;;10.30;99.90;;;;;;4993665;28;20511;-74
2022/03/16 09:54:03;;;;;;;30.87;21.40;;;10.40;99.90;;;;;;4994242;28;20462;-73
2022/03/16 09:56:32;;;;;;;28.77;21.60;;;10.50;99.90;;;;;;4993905;28;20490;-75
2022/03/16 09:58:59;;;;;;;28.80;20.40;;;10.60;99.90;;;;;;4994782;28;20462;-73
2022/03/16 10:01:26;;;;;;;27.27;20.10;;;10.70;99.90;;;;;;4994626;28;20490;-73
2022/03/16 10:03:54;;;;;;;26.60;19.10;;;10.80;99.90;;;;;;4994188;28;20545;-75
2022/03/16 10:06:23;;;;;;;25.80;19.13;;;10.90;99.90;;;;;;4994351;28;20978;-73
2022/03/16 10:14:16;;;;;;;26.20;19.07;;;11.00;99.90;;;;;;4994176;28;20455;-74
2022/03/16 10:19:48;;;;;;;27.87;20.73;;;11.20;99.90;;;;;;4994381;28;20430;-75
2022/03/16 10:22:25;;;;;;;27.03;19.90;;;11.30;99.90;;;;;;4994149;28;20562;-74
2022/03/16 10:24:54;;;;;;;26.57;19.50;;;11.50;99.90;;;;;;4994175;28;20459;-74
2022/03/16 10:27:23;;;;;;;26.00;18.97;;;11.50;99.90;;;;;;4994159;28;20466;-74
2022/03/16 10:29:51;;;;;;;26.60;19.20;;;11.60;99.90;;;;;;4994276;28;20487;-74
2022/03/16 10:32:22;;;;;;;24.33;18.10;;;11.60;99.90;;;;;;4994139;28;20472;-74
2022/03/16 10:34:51;;;;;;;25.70;19.00;;;11.70;99.90;;;;;;4994102;28;20506;-74
2022/03/16 10:37:21;;;;;;;22.13;16.57;;;11.70;99.90;;;;;;4993781;28;20546;-74
2022/03/16 10:39:50;;;;;;;20.70;16.50;;;11.80;99.90;;;;;;4994132;28;20456;-74
2022/03/16 10:48:11;;;;;;;24.83;17.37;;;12.40;99.90;;;;;;4974277;28;20436;-74
2022/03/16 10:50:39;;;;;;;21.07;15.70;;;12.50;99.90;;;;;;4974568;28;20559;-74
2022/03/16 10:53:06;;;;;;;22.80;17.00;;;12.60;99.90;;;;;;4974329;28;20456;-74
2022/03/16 10:55:35;;;;;;;22.83;16.77;;;12.70;99.90;;;;;;4974320;28;20502;-74
2022/03/16 10:58:06;;;;;;;22.17;17.07;;;12.90;99.90;;;;;;4973888;28;20543;-74
2022/03/16 11:00:35;;;;;;;23.23;16.20;;;13.20;99.90;;;;;;4974281;28;20495;-74
2022/03/16 11:03:06;;;;;;;19.77;15.67;;;13.40;99.90;;;;;;4974213;28;20953;-74
2022/03/16 11:05:36;;;;;;;19.03;15.37;;;13.70;99.90;;;;;;4974359;28;20491;-74
2022/03/16 11:08:06;;;;;;;20.80;16.77;;;14.00;99.90;;;;;;4973701;28;20457;-74
2022/03/16 11:10:34;;;;;;;20.03;15.60;;;14.00;99.90;;;;;;4973873;28;20491;-74
2022/03/16 11:15:50;;;;;;;18.60;15.10;;;14.30;99.90;;;;;;5023264;23;21156;-77
2022/03/16 11:18:18;;;;;;;19.40;15.60;;;14.50;99.90;;;;;;4993083;28;21114;-76
2022/03/16 11:20:47;;;;;;;17.90;14.13;;;14.90;99.90;;;;;;4992794;28;20451;-77
2022/03/16 11:26:15;;;;;;;16.33;13.30;;;15.40;99.90;;;;;;4993100;28;20459;-76
2022/03/16 11:28:55;;;;;;;17.20;14.17;;;15.60;99.90;;;;;;4993063;28;20451;-76
2022/03/16 11:31:27;;;;;;;17.27;13.70;;;15.80;99.90;;;;;;4993050;28;20455;-75
2022/03/16 11:33:55;;;;;;;16.97;13.63;;;16.00;99.90;;;;;;4993245;28;20832;-76
2022/03/16 11:36:30;;;;;;;15.60;13.03;;;16.30;99.90;;;;;;4992754;28;20499;-76
2022/03/16 11:38:58;;;;;;;20.40;12.63;;;16.50;99.90;;;;;;4992975;28;20456;-75
2022/03/16 11:41:29;;;;;;;14.70;12.50;;;16.70;99.90;;;;;;4993141;28;20451;-76
2022/03/16 11:44:01;;;;;;;15.20;13.65;;;16.80;99.90;;;;;;4991845;28;20441;-76
2022/03/16 11:46:31;;;;;;;13.07;11.33;;;16.90;99.90;;;;;;4992527;28;20272;-76
2022/03/16 11:49:02;;;;;;;14.97;12.27;;;17.00;99.90;;;;;;4992864;28;20522;-76
2022/03/16 11:51:30;;;;;;;14.33;12.10;;;17.10;99.90;;;;;;4993199;28;20456;-76
2022/03/16 11:54:17;;;;;;;15.70;12.20;;;17.20;99.90;;;;;;4992832;28;20460;-77
2022/03/16 11:56:57;;;;;;;13.37;10.97;;;17.30;99.90;;;;;;4992842;28;20517;-76
2022/03/16 11:59:35;;;;;;;12.77;11.10;;;17.50;99.90;;;;;;4992665;28;20955;-77
2022/03/16 12:02:26;;;;;;;14.87;11.70;;;17.50;99.90;;;;;;4992673;28;20459;-77
2022/03/16 12:05:02;;;;;;;14.60;10.73;;;17.60;99.90;;;;;;4992825;28;20511;-76
2022/03/16 12:07:34;;;;;;;13.20;10.83;;;17.70;99.90;;;;;;4992377;28;20501;-76
2022/03/16 12:10:10;;;;;;;12.60;10.40;;;18.00;99.90;;;;;;4992182;28;20498;-76
2022/03/16 12:12:54;;;;;;;11.73;10.07;;;18.00;99.90;;;;;;4992297;28;20458;-75
2022/03/16 12:15:28;;;;;;;13.17;10.20;;;18.10;99.90;;;;;;4992096;28;20995;-76
2022/03/16 12:18:23;;;;;;;13.33;10.80;;;18.10;99.90;;;;;;4992338;28;20436;-76
2022/03/16 12:20:56;;;;;;;13.20;10.90;;;18.00;99.90;;;;;;4992456;28;20460;-77
2022/03/16 12:25:08;;;;;;;13.43;10.43;;;18.00;99.90;;;;;;4993377;28;20442;-77
2022/03/16 12:29:29;;;;;;;17.10;10.93;;;18.00;99.90;;;;;;4992653;28;20444;-77
2022/03/16 12:31:57;;;;;;;13.83;10.10;;;17.80;99.90;;;;;;4992472;28;20939;-78
2022/03/16 12:34:26;;;;;;;12.70;10.60;;;17.70;99.90;;;;;;4992544;28;20462;-77
2022/03/16 12:36:54;;;;;;;10.83;9.37;;;17.60;99.90;;;;;;4996237;28;20516;-77
2022/03/16 12:39:21;;;;;;;12.10;9.87;;;17.70;99.90;;;;;;4996506;28;21034;-77
2022/03/16 12:44:42;;;;;;;11.03;9.80;;;17.80;99.90;;;;;;4996690;28;20912;-77
2022/03/16 12:47:15;;;;;;;18.70;10.30;;;17.70;99.90;;;;;;4995908;28;20451;-78
2022/03/16 12:49:46;;;;;;;11.87;9.37;;;17.60;99.90;;;;;;4996509;28;20444;-77
2022/03/16 12:52:13;;;;;;;11.20;9.67;;;17.60;99.90;;;;;;4996252;28;20857;-77
2022/03/16 12:54:41;;;;;;;13.20;10.07;;;17.60;99.90;;;;;;4996753;28;20603;-76
2022/03/16 12:57:11;;;;;;;17.10;10.73;;;17.60;99.90;;;;;;4995890;28;21222;-78
2022/03/16 12:59:46;;;;;;;15.10;10.80;;;17.70;99.90;;;;;;4994645;28;20439;-77
2022/03/16 13:02:13;;;;;;;14.07;10.07;;;17.90;99.90;;;;;;4995639;28;20446;-78
2022/03/16 13:04:41;;;;;;;17.83;10.50;;;17.80;99.90;;;;;;4995943;28;20471;-77
2022/03/16 13:07:10;;;;;;;18.63;11.87;;;17.80;99.90;;;;;;4995362;28;20451;-78
2022/03/16 13:09:39;;;;;;;12.40;10.13;;;17.70;99.90;;;;;;4995778;28;20856;-77
2022/03/16 13:12:08;;;;;;;13.90;10.70;;;17.70;99.90;;;;;;4995705;28;20462;-77
2022/03/16 13:14:37;;;;;;;15.37;10.60;;;17.60;99.90;;;;;;4995498;28;20467;-78
2022/03/16 13:17:07;;;;;;;16.60;11.37;;;17.60;99.90;;;;;;4995283;28;20546;-78
2022/03/16 13:19:36;;;;;;;14.97;11.17;;;17.60;99.90;;;;;;4995196;28;20459;-78
2022/03/16 13:22:05;;;;;;;14.10;10.83;;;17.50;99.90;;;;;;4995704;28;20469;-78
2022/03/16 13:24:37;;;;;;;15.03;9.90;;;17.50;99.90;;;;;;4995469;28;20463;-77
2022/03/16 13:27:05;;;;;;;15.73;11.00;;;17.50;99.90;;;;;;4995373;28;20448;-78
2022/03/16 13:29:34;;;;;;;15.40;11.10;;;17.40;99.90;;;;;;4995304;28;20959;-78
2022/03/16 13:32:02;;;;;;;12.37;11.07;;;17.30;99.90;;;;;;4995146;28;20886;-78
2022/03/16 13:34:32;;;;;;;15.43;11.00;;;17.30;99.90;;;;;;4995000;28;20523;-78
2022/03/16 13:36:59;;;;;;;12.83;11.20;;;17.20;99.90;;;;;;4995149;28;20494;-77
2022/03/16 13:39:27;;;;;;;12.60;10.97;;;17.00;99.90;;;;;;4995208;28;20564;-78
2022/03/16 13:42:15;;;;;;;16.83;10.43;;;17.00;99.90;;;;;;4995181;28;20459;-77
2022/03/16 13:44:47;;;;;;;12.30;10.00;;;17.00;99.90;;;;;;4994720;28;20999;-77
2022/03/16 13:47:23;;;;;;;12.50;10.40;;;16.90;99.90;;;;;;4993472;28;20532;-77
2022/03/16 13:49:51;;;;;;;13.57;11.13;;;16.80;99.90;;;;;;4995085;28;20539;-78
2022/03/16 13:52:20;;;;;;;12.50;10.30;;;16.80;99.90;;;;;;4994820;28;20453;-77
2022/03/16 13:54:48;;;;;;;15.50;11.00;;;16.60;99.90;;;;;;4995215;28;20475;-78
2022/03/16 13:57:19;;;;;;;13.90;9.83;;;16.60;99.90;;;;;;4994063;28;20586;-78
2022/03/16 13:59:56;;;;;;;15.40;11.57;;;16.50;99.90;;;;;;4995013;28;20491;-78
2022/03/16 14:02:24;;;;;;;16.27;12.20;;;16.50;99.90;;;;;;4994794;28;20451;-78
2022/03/16 14:04:57;;;;;;;13.37;11.97;;;16.60;99.90;;;;;;4994569;28;20564;-78
2022/03/16 14:07:27;;;;;;;16.80;13.40;;;16.50;99.90;;;;;;4994730;28;20550;-77
2022/03/16 14:09:55;;;;;;;16.53;12.67;;;16.50;99.90;;;;;;4994860;28;20459;-78
2022/03/16 14:12:24;;;;;;;18.70;13.20;;;16.60;99.90;;;;;;4994739;28;20487;-78
2022/03/16 14:15:01;;;;;;;18.03;12.60;;;16.50;99.90;;;;;;4994376;28;20571;-78
2022/03/16 14:17:45;;;;;;;15.50;12.50;;;16.60;99.90;;;;;;4994198;28;20495;-78
2022/03/16 14:20:14;;;;;;;16.70;12.17;;;16.40;99.90;;;;;;4994575;28;20491;-78
2022/03/16 14:22:42;;;;;;;15.43;12.17;;;16.50;99.90;;;;;;4994487;28;20452;-78
2022/03/16 14:25:17;;;;;;;15.43;12.40;;;16.40;99.90;;;;;;4993637;28;21062;-78
2022/03/16 14:27:48;;;;;;;18.07;13.43;;;16.50;99.90;;;;;;4993854;28;20466;-77
2022/03/16 14:30:16;;;;;;;16.13;13.20;;;16.40;99.90;;;;;;4993322;28;20514;-78
2022/03/16 14:32:43;;;;;;;15.87;12.87;;;16.40;99.90;;;;;;4993264;28;20464;-78
2022/03/16 14:35:10;;;;;;;16.00;13.23;;;16.40;99.90;;;;;;4993467;28;20472;-77
2022/03/16 14:37:37;;;;;;;14.77;12.10;;;16.40;99.90;;;;;;4992983;28;21038;-77
2022/03/16 14:40:05;;;;;;;13.73;12.27;;;16.40;99.90;;;;;;4993490;28;20456;-78
2022/03/16 14:42:32;;;;;;;15.43;12.30;;;16.40;99.90;;;;;;4993063;28;20538;-78
2022/03/16 14:45:00;;;;;;;14.57;12.00;;;16.30;99.90;;;;;;4993045;28;20480;-78
2022/03/16 14:47:27;;;;;;;16.80;12.67;;;16.30;99.90;;;;;;4993681;28;20458;-78
2022/03/16 14:49:56;;;;;;;15.57;12.67;;;16.30;99.90;;;;;;4993572;28;20460;-77
2022/03/16 14:52:23;;;;;;;13.20;11.80;;;16.20;99.90;;;;;;4992865;28;20510;-77
2022/03/16 14:54:50;;;;;;;17.27;12.73;;;16.10;99.90;;;;;;4993406;28;20514;-78
2022/03/16 14:57:18;;;;;;;14.20;11.93;;;16.10;99.90;;;;;;4993307;28;20491;-77
2022/03/16 14:59:46;;;;;;;12.97;11.53;;;16.00;99.90;;;;;;4993914;28;20514;-77
2022/03/16 15:02:14;;;;;;;13.37;11.87;;;15.80;99.90;;;;;;4993633;28;20831;-77
2022/03/16 15:04:43;;;;;;;15.53;12.43;;;15.80;99.90;;;;;;4993519;28;20987;-78
2022/03/16 15:07:11;;;;;;;15.20;13.43;;;15.70;99.90;;;;;;4993183;28;20452;-78
2022/03/16 15:09:38;;;;;;;16.03;11.97;;;15.70;99.90;;;;;;4991865;28;20450;-78
2022/03/16 15:12:05;;;;;;;15.60;12.60;;;15.60;99.90;;;;;;4992586;28;20451;-77
2022/03/16 15:14:32;;;;;;;13.97;12.47;;;15.60;99.90;;;;;;4993297;28;20899;-77
2022/03/16 15:16:59;;;;;;;14.80;12.03;;;15.60;99.90;;;;;;4992615;28;20578;-77
2022/03/16 15:19:27;;;;;;;14.73;12.53;;;15.50;99.90;;;;;;4991181;28;20459;-78
2022/03/16 15:21:54;;;;;;;15.23;12.40;;;15.50;99.90;;;;;;4991737;28;20458;-77
2022/03/16 15:24:22;;;;;;;13.57;12.03;;;15.50;99.90;;;;;;4992116;28;20523;-78
2022/03/16 15:26:49;;;;;;;14.10;12.30;;;15.40;99.90;;;;;;4991798;28;20457;-77
2022/03/16 15:29:16;;;;;;;13.40;11.97;;;15.40;99.90;;;;;;4992372;28;20813;-78
2022/03/16 15:31:43;;;;;;;17.73;12.63;;;15.40;99.90;;;;;;4992139;28;20527;-77
2022/03/16 15:34:11;;;;;;;19.30;13.90;;;15.30;99.90;;;;;;4993158;28;20538;-77
2022/03/16 15:36:39;;;;;;;15.47;12.50;;;15.30;99.90;;;;;;4992673;28;20511;-78
2022/03/16 15:39:07;;;;;;;16.00;13.50;;;15.20;99.90;;;;;;4993099;28;20829;-78
2022/03/16 15:44:19;;;;;;;19.10;14.90;;;15.20;99.90;;;;;;4993036;28;20459;-77
2022/03/16 15:46:45;;;;;;;14.50;12.97;;;15.10;99.90;;;;;;4992732;28;20974;-77
2022/03/16 15:49:12;;;;;;;17.80;13.97;;;15.10;99.90;;;;;;4992829;28;20507;-78
2022/03/16 15:51:41;;;;;;;17.90;14.97;;;15.10;99.90;;;;;;4992660;28;20610;-77
2022/03/16 15:54:07;;;;;;;16.13;13.57;;;15.10;99.90;;;;;;4993383;28;20478;-77
2022/03/16 15:56:35;;;;;;;15.10;13.53;;;15.00;99.90;;;;;;4992587;28;20474;-77
2022/03/16 15:59:01;;;;;;;17.97;15.30;;;15.00;99.90;;;;;;4993147;28;20452;-77
2022/03/16 16:01:29;;;;;;;16.73;14.90;;;15.00;99.90;;;;;;4992901;28;20534;-78
2022/03/16 16:03:57;;;;;;;18.27;14.43;;;14.90;99.90;;;;;;4993047;28;21007;-78
2022/03/16 16:06:26;;;;;;;16.50;14.70;;;14.90;99.90;;;;;;4993260;28;20979;-78
2022/03/16 16:08:54;;;;;;;18.80;16.60;;;14.90;99.90;;;;;;4992839;28;20994;-78
2022/03/16 16:11:21;;;;;;;16.57;14.60;;;14.90;99.90;;;;;;4992660;28;20538;-78
2022/03/16 16:13:48;;;;;;;23.07;16.40;;;14.90;99.90;;;;;;4993042;28;20452;-78
2022/03/16 16:16:16;;;;;;;20.03;15.70;;;14.90;99.90;;;;;;4992406;28;20483;-79
2022/03/16 16:18:43;;;;;;;21.87;16.23;;;14.70;99.90;;;;;;4992396;28;20542;-78
2022/03/16 16:21:10;;;;;;;21.00;16.40;;;14.70;99.90;;;;;;4992707;28;20949;-77
2022/03/16 16:23:37;;;;;;;20.40;15.90;;;14.70;99.90;;;;;;4992848;28;20523;-78
2022/03/16 16:26:05;;;;;;;18.53;15.73;;;14.60;99.90;;;;;;4992596;28;21057;-78
2022/03/16 16:28:33;;;;;;;19.47;16.50;;;14.50;99.90;;;;;;4992542;28;21015;-77
2022/03/16 16:31:01;;;;;;;20.00;16.30;;;14.50;99.90;;;;;;4992763;28;20455;-78
2022/03/16 16:33:30;;;;;;;18.67;15.57;;;14.50;99.90;;;;;;4992683;28;20448;-77
2022/03/16 16:35:58;;;;;;;20.00;16.80;;;14.30;99.90;;;;;;4992743;28;20817;-77
2022/03/16 16:38:25;;;;;;;17.87;14.80;;;14.30;99.90;;;;;;4992294;28;20527;-77
2022/03/16 16:40:53;;;;;;;17.17;14.73;;;14.20;99.90;;;;;;4992972;28;20539;-77
2022/03/16 16:43:22;;;;;;;21.27;17.40;;;14.20;99.90;;;;;;4992923;28;20456;-77
2022/03/16 16:45:50;;;;;;;20.47;16.97;;;14.20;99.90;;;;;;4992210;28;20546;-77
2022/03/16 16:48:21;;;;;;;20.67;14.80;;;14.10;99.90;;;;;;4992518;28;20784;-78
2022/03/16 16:50:50;;;;;;;19.43;16.73;;;14.10;99.90;;;;;;4993223;28;20859;-76
2022/03/16 16:53:18;;;;;;;22.70;15.83;;;14.10;99.90;;;;;;4993082;28;20518;-77
2022/03/16 16:55:45;;;;;;;21.53;16.20;;;14.10;99.90;;;;;;4991809;28;20499;-78
2022/03/16 16:58:12;;;;;;;20.23;16.67;;;14.10;99.90;;;;;;4991574;28;20541;-77
2022/03/16 17:00:41;;;;;;;19.20;16.53;;;14.10;99.90;;;;;;4992108;28;20475;-78
2022/03/16 17:03:10;;;;;;;21.43;16.77;;;14.00;99.90;;;;;;4992653;28;20452;-78
2022/03/16 17:05:41;;;;;;;20.60;17.20;;;14.00;99.90;;;;;;4992393;28;20579;-77
2022/03/16 17:08:10;;;;;;;19.83;16.90;;;14.00;99.90;;;;;;4992557;28;20518;-77
2022/03/16 17:10:39;;;;;;;21.23;17.87;;;14.00;99.90;;;;;;4992654;28;20455;-77
2022/03/16 17:13:08;;;;;;;21.30;16.53;;;13.90;99.90;;;;;;4992892;28;20475;-77
2022/03/16 17:15:41;;;;;;;21.00;17.80;;;13.90;99.90;;;;;;5000130;23;20523;-77
2022/03/16 17:18:10;;;;;;;21.27;17.73;;;13.90;99.90;;;;;;4992112;28;20494;-77
2022/03/16 17:20:38;;;;;;;23.00;17.33;;;13.80;99.90;;;;;;4992422;28;20459;-77
2022/03/16 17:23:06;;;;;;;21.50;16.80;;;13.80;99.90;;;;;;4996194;28;20466;-76
2022/03/16 17:25:35;;;;;;;22.63;18.10;;;13.70;99.90;;;;;;4996364;28;21010;-78
2022/03/16 17:28:02;;;;;;;23.50;19.10;;;13.70;99.90;;;;;;4998997;28;20530;-77
2022/03/16 17:30:30;;;;;;;21.70;18.60;;;13.70;99.90;;;;;;4997514;28;20552;-77
2022/03/16 17:32:59;;;;;;;23.33;19.43;;;13.70;99.90;;;;;;4996204;28;20447;-76
2022/03/16 17:35:30;;;;;;;25.60;19.27;;;13.60;99.90;;;;;;4995446;28;20984;-77
2022/03/16 17:37:57;;;;;;;24.00;21.30;;;13.60;99.90;;;;;;4995351;28;20579;-77
2022/03/16 17:40:24;;;;;;;24.60;19.10;;;13.60;99.90;;;;;;4995532;28;20480;-77
2022/03/16 17:45:37;;;;;;;20.93;17.40;;;13.40;99.90;;;;;;4995693;28;20466;-77
2022/03/16 17:48:06;;;;;;;24.33;18.90;;;13.40;99.90;;;;;;4995153;28;20550;-77
2022/03/16 17:50:37;;;;;;;22.10;18.47;;;13.40;99.90;;;;;;4995127;28;20534;-77
2022/03/16 17:53:04;;;;;;;22.90;18.60;;;13.30;99.90;;;;;;4995140;28;20432;-77
2022/03/16 17:58:15;;;;;;;24.63;19.67;;;13.20;99.90;;;;;;4994924;28;20479;-77
2022/03/16 18:00:43;;;;;;;22.90;18.23;;;13.20;99.90;;;;;;4995318;28;20483;-77
2022/03/16 18:03:11;;;;;;;22.73;18.53;;;13.20;99.90;;;;;;4995183;28;20458;-77
2022/03/16 18:05:40;;;;;;;28.17;19.93;;;13.10;99.90;;;;;;4994701;28;20534;-77
2022/03/16 18:08:09;;;;;;;26.23;20.60;;;13.10;99.90;;;;;;4995264;28;20542;-77
2022/03/16 18:13:23;;;;;;;24.63;19.47;;;12.90;99.90;;;;;;4994745;28;20924;-76
2022/03/16 18:15:50;;;;;;;33.13;21.80;;;12.90;99.90;;;;;;4994621;28;20480;-77
2022/03/16 18:18:17;;;;;;;26.40;20.40;;;12.90;99.90;;;;;;4994652;28;20527;-77